Olympic National Park, WA

07:04 PM PDT am 02. September 2014 (GMT -0700)
Whidbey Island Naval Air Station | Change Station
CLOSE
Current Station
Flughafen
Location: Whidbey Island,
Höhe: 46 ft
Wetterstationen in der Umgebung

Höhe 46 ft 48.35 °N, 122.66 °W | Updated 8 minutes ago

Light Rain
Leichter Regen
57 °F
gefühlte 57 °F
N
14
Wind Wechselnd Wind aus West-Nordwest

Heute
Max. -- | schwach -- °F
--% Regenrisiko
Gestern
Max. -- | schwach -- °F
Precip. -- inch
6:33 AM 7:52 PM
Erstes Viertel, 57% visible
Druck 29.84 inch
Sichtweite 8.0 Meilen
Wolken Teils Wolkig 700 ft
Wolkig 4000 ft
Bedeckt 6000 ft
Taupunkt 53 °F
Feuchtigkeit 87%
Regen 0.87 inch
Schneehöhe Nicht verfügbar..
UV 0 von 12
Pollen .80 von 12
PM2.5 Gut
Flu Activity Nicht verfügbar..
METAR KNUW 030156Z 29012KT 8SM -RA SCT007 BKN040 OVC060 14/12 A2983 RMK AO2 RAB0059 SLP104 P0009 T01390117 $

More Conditions Fewer Conditions

Druck 29.84 inch
Sichtweite 8.0 Meilen
Wolken Teils Wolkig 700 ft
Wolkig 4000 ft
Bedeckt 6000 ft
Taupunkt 53 °F
Feuchtigkeit 87%
Regen 0.87 inch
Schneehöhe Nicht verfügbar..
UV 0 von 12
Pollen .80 von 12
PM2.5 Gut
Flu Activity Nicht verfügbar..
METAR KNUW 030156Z 29012KT 8SM -RA SCT007 BKN040 OVC060 14/12 A2983 RMK AO2 RAB0059 SLP104 P0009 T01390117 $

More Conditions Fewer Conditions

10-Day Weather Forecast

Almanac

Astronomie

Sep. 02, 2014 Aufgang Untergang
Genaue Zeit 06:33 PDT 19:52 PDT
Bürgerliche Dämmerung 06:01 PDT 20:24 PDT
Nautische Dämmerung 05:22 PDT 21:03 PDT
Astronomische Dämmerung 04:40 PDT 21:45 PDT
Mond 14:55 PDT (9/2) kein Monduntergang
Länge des sichtbaren Lichts 14h 23m
Tageslänge
13h 19m
Tomorrow will be 3m 22s shorter.
Erstes Viertel, 57% of the Moon is Illuminated
Heute
Erstes Viertel
Sept 8
Vollmond
Sept 15
Letztes Viertel
Sept 24
Neu
Okt 1
Erstes Viertel

Heutige Rekorde

State Highs State Lows

Community

WunderPhotos

Upload Photos

1,749,837 Fotos hochgeladen!

Nearby

Luftqualität

  Luftqualität LQ Index Schadstoff
Gestern Gut
PM2.5
Aktuell Gut
PM2.5

Schneehöhe

Station Depth Höhe
Dungeness 0 in 4100 ft
Mount Crag 0 in 4050 ft
Alpine Meadows 0 in 3500 ft
Elbow Lake 0 in 3200 ft
Mf Nooksack 0 in 4980 ft

Erdbebenaktivität

Stadt Distance Mag. Time & Date
No recent earthquake activity has been reported nearby.
Minimum magnitude displayed is 2.5.

küstennahe Wassertemperaturen

Ort Temperatur
Port Angeles, WA 52.0 °F
Friday Harbor, WA 53.1 °F
Port Townsend, WA 54.0 °F
La Push, WA 55.0 °F

Wetterstationen in der Umgebung